createdAt,value
2018-05-07T00:01:17.698Z,53.00
2018-05-07T00:03:45.161Z,53.30
2018-05-07T00:06:12.628Z,53.50
2018-05-07T00:08:40.148Z,54.40
2018-05-07T00:11:07.638Z,53.80
2018-05-07T00:13:35.069Z,54.10
2018-05-07T00:16:02.538Z,54.80
2018-05-07T00:18:30.089Z,54.80
2018-05-07T00:20:57.641Z,55.10
2018-05-07T00:23:25.210Z,55.10
2018-05-07T00:25:52.668Z,55.00
2018-05-07T00:28:20.126Z,55.20
2018-05-07T00:30:47.580Z,55.50
2018-05-07T00:33:15.169Z,55.50
2018-05-07T00:35:42.560Z,55.90
2018-05-07T00:38:10.016Z,55.90
2018-05-07T00:40:37.476Z,55.80
2018-05-07T00:43:04.929Z,55.70
2018-05-07T00:45:32.446Z,55.70
2018-05-07T00:47:59.989Z,56.00
2018-05-07T00:50:27.448Z,55.90
2018-05-07T00:52:55.009Z,56.20
2018-05-07T00:55:22.569Z,56.10
2018-05-07T00:57:50.133Z,56.40
2018-05-07T01:00:17.689Z,56.70
2018-05-07T01:02:45.145Z,57.30
2018-05-07T01:05:12.705Z,57.40
2018-05-07T01:07:40.172Z,57.30
2018-05-07T01:10:07.789Z,57.70
2018-05-07T01:12:35.232Z,57.80
2018-05-07T01:15:02.744Z,57.70
2018-05-07T01:17:30.204Z,58.10
2018-05-07T01:19:57.765Z,58.80
2018-05-07T01:22:25.320Z,58.70
2018-05-07T01:24:52.880Z,59.20
2018-05-07T01:27:20.345Z,59.80
2018-05-07T01:29:47.810Z,60.30
2018-05-07T01:32:15.266Z,60.50
2018-05-07T01:34:42.822Z,62.20
2018-05-07T01:37:10.269Z,62.30
2018-05-07T01:39:37.721Z,62.60
2018-05-07T01:42:05.259Z,62.90
2018-05-07T01:44:32.712Z,62.90
2018-05-07T01:47:00.166Z,63.00
2018-05-07T01:49:27.625Z,62.70
2018-05-07T01:51:55.081Z,63.10
2018-05-07T01:54:22.584Z,62.60
2018-05-07T01:56:50.105Z,63.00
2018-05-07T01:59:19.755Z,63.80
2018-05-07T02:01:47.312Z,64.70
2018-05-07T02:04:14.873Z,65.10
2018-05-07T02:06:42.337Z,65.30
2018-05-07T02:09:09.955Z,65.60
2018-05-07T02:11:37.400Z,65.50
2018-05-07T02:14:04.852Z,65.40
2018-05-07T02:16:32.368Z,65.50
2018-05-07T02:18:59.836Z,65.60
2018-05-07T02:21:27.296Z,65.60
2018-05-07T02:23:54.844Z,65.60
2018-05-07T02:26:22.401Z,65.70
2018-05-07T02:28:49.964Z,65.80
2018-05-07T02:31:17.431Z,66.10
2018-05-07T02:33:44.981Z,66.80
2018-05-07T02:36:12.449Z,66.90
2018-05-07T02:38:39.912Z,66.70
2018-05-07T02:41:07.366Z,66.70
2018-05-07T02:43:34.824Z,66.50
2018-05-07T02:46:02.438Z,66.40
2018-05-07T02:48:29.937Z,66.60
2018-05-07T02:50:57.504Z,66.40
2018-05-07T02:53:25.717Z,66.50
2018-05-07T02:55:53.173Z,66.40
2018-05-07T02:58:21.388Z,66.40
2018-05-07T03:00:48.848Z,66.20
2018-05-07T03:03:16.316Z,66.10
2018-05-07T03:05:43.775Z,66.30
2018-05-07T03:08:11.372Z,66.20
2018-05-07T03:10:39.624Z,66.80
2018-05-07T03:13:07.175Z,66.80
2018-05-07T03:15:34.633Z,66.80
2018-05-07T03:18:02.201Z,67.50
2018-05-07T03:20:29.760Z,67.70
2018-05-07T03:22:57.208Z,67.60
2018-05-07T03:25:24.778Z,67.60
2018-05-07T03:27:52.996Z,67.70
2018-05-07T03:30:20.445Z,67.80
2018-05-07T03:32:48.669Z,68.30
2018-05-07T03:35:16.145Z,68.40
2018-05-07T03:37:43.700Z,68.60
2018-05-07T03:40:11.265Z,69.10
2018-05-07T03:42:38.820Z,69.50
2018-05-07T03:45:06.277Z,69.40
2018-05-07T03:47:33.836Z,69.70
2018-05-07T03:50:01.291Z,69.80
2018-05-07T03:52:28.760Z,70.10
2018-05-07T03:54:56.218Z,70.40
2018-05-07T03:57:23.776Z,70.00
2018-05-07T03:59:51.332Z,70.00
2018-05-07T04:02:18.784Z,69.70
2018-05-07T04:04:46.244Z,69.60
2018-05-07T04:07:13.835Z,69.50
2018-05-07T04:09:41.377Z,69.00
2018-05-07T04:12:09.648Z,68.90
2018-05-07T04:14:37.110Z,68.70
2018-05-07T04:17:16.553Z,68.70
2018-05-07T04:19:56.652Z,69.30
2018-05-07T04:22:36.004Z,68.80
2018-05-07T04:25:03.488Z,69.50
2018-05-07T04:27:31.059Z,68.50
2018-05-07T04:29:59.294Z,68.60
2018-05-07T04:32:26.746Z,68.70
2018-05-07T04:34:54.196Z,68.60
2018-05-07T04:37:21.653Z,68.50
2018-05-07T04:39:49.104Z,68.40
2018-05-07T04:42:17.325Z,68.30
2018-05-07T04:44:44.799Z,68.30
2018-05-07T04:47:12.257Z,67.90
2018-05-07T04:49:39.705Z,67.60
2018-05-07T04:52:07.168Z,66.90
2018-05-07T04:54:34.732Z,65.50
2018-05-07T04:57:02.295Z,64.80
2018-05-07T04:59:29.864Z,64.90
2018-05-07T05:01:57.320Z,64.30
2018-05-07T05:04:24.781Z,64.00
2018-05-07T05:06:52.240Z,63.60
2018-05-07T05:09:19.701Z,62.90
2018-05-07T05:11:47.157Z,62.80
2018-05-07T05:14:14.613Z,62.50
2018-05-07T05:16:42.161Z,61.90
2018-05-07T05:19:09.619Z,61.80
2018-05-07T05:21:37.076Z,60.60
2018-05-07T05:24:04.644Z,60.40
2018-05-07T05:26:32.109Z,60.20
2018-05-07T05:28:59.569Z,59.50
2018-05-07T05:31:27.117Z,58.20
2018-05-07T05:33:54.588Z,56.50
2018-05-07T05:36:22.112Z,55.10
2018-05-07T05:38:49.651Z,53.90
2018-05-07T05:41:17.112Z,53.10
2018-05-07T05:43:44.708Z,52.90
2018-05-07T05:46:12.164Z,53.70
2018-05-07T05:48:39.630Z,53.90
2018-05-07T05:51:07.185Z,53.80
2018-05-07T05:53:34.640Z,54.20
2018-05-07T05:56:02.201Z,54.10
2018-05-07T05:58:29.770Z,54.40
2018-05-07T06:00:57.329Z,54.20
2018-05-07T06:03:24.885Z,53.80
2018-05-07T06:05:52.342Z,53.90
2018-05-07T06:08:19.809Z,53.50
2018-05-07T06:10:47.269Z,53.20
2018-05-07T06:13:14.819Z,54.40
2018-05-07T06:15:42.380Z,54.10
2018-05-07T06:18:09.945Z,52.90
2018-05-07T06:20:37.401Z,53.50
2018-05-07T06:23:04.957Z,52.80
2018-05-07T06:25:32.417Z,52.70
2018-05-07T06:27:59.976Z,52.80
2018-05-07T06:30:27.538Z,52.60
2018-05-07T06:32:54.994Z,52.70
2018-05-07T06:35:22.558Z,52.80
2018-05-07T06:37:50.021Z,51.70
2018-05-07T06:40:17.603Z,51.70
2018-05-07T06:42:45.044Z,52.10
2018-05-07T06:45:12.590Z,51.60
2018-05-07T06:47:40.157Z,51.10
2018-05-07T06:50:07.713Z,51.10
2018-05-07T06:52:35.278Z,51.10
2018-05-07T06:55:02.731Z,50.80
2018-05-07T06:57:30.187Z,50.50
2018-05-07T06:59:57.747Z,50.80
2018-05-07T07:02:25.326Z,50.50
2018-05-07T07:04:52.749Z,49.90
2018-05-07T07:07:20.228Z,50.20
2018-05-07T07:09:47.788Z,49.30
2018-05-07T07:12:15.244Z,48.70
2018-05-07T07:14:42.701Z,48.70
2018-05-07T07:17:10.262Z,47.60
2018-05-07T07:19:37.717Z,48.40
2018-05-07T07:22:05.177Z,48.40
2018-05-07T07:24:32.740Z,47.70
2018-05-07T07:27:00.297Z,46.50
2018-05-07T07:29:27.861Z,47.30
2018-05-07T07:31:55.421Z,46.40
2018-05-07T07:34:23.659Z,45.70
2018-05-07T07:36:51.105Z,45.70
2018-05-07T07:39:18.643Z,46.20
2018-05-07T07:41:46.078Z,45.00
2018-05-07T07:44:13.532Z,45.50
2018-05-07T07:46:41.090Z,46.60
2018-05-07T07:49:08.752Z,46.00
2018-05-07T07:51:36.312Z,44.90
2018-05-07T07:54:03.869Z,44.10
2018-05-07T07:56:31.433Z,45.20
2018-05-07T07:58:58.988Z,44.10
2018-05-07T08:01:26.515Z,43.70
2018-05-07T08:03:54.010Z,44.40
2018-05-07T08:06:21.574Z,43.80
2018-05-07T08:08:49.028Z,44.60
2018-05-07T08:11:16.492Z,44.70
2018-05-07T08:13:44.761Z,44.20
2018-05-07T08:16:12.222Z,44.20
2018-05-07T08:18:39.680Z,43.60
2018-05-07T08:21:07.140Z,43.20
2018-05-07T08:23:34.699Z,43.20
2018-05-07T08:26:02.257Z,43.20
2018-05-07T08:28:29.713Z,43.30
2018-05-07T08:30:57.257Z,42.70
2018-05-07T08:33:24.797Z,41.40
2018-05-07T08:35:52.297Z,42.20
2018-05-07T08:38:19.754Z,41.60
2018-05-07T08:40:47.209Z,41.90
2018-05-07T08:43:14.768Z,42.40
2018-05-07T08:45:42.336Z,43.00
2018-05-07T08:48:09.893Z,42.50
2018-05-07T08:50:37.457Z,41.00
2018-05-07T08:53:05.136Z,40.30
2018-05-07T08:55:32.584Z,40.10
2018-05-07T08:58:00.042Z,39.60
2018-05-07T09:00:27.655Z,40.90
2018-05-07T09:02:55.105Z,40.80
2018-05-07T09:05:22.560Z,40.80
2018-05-07T09:07:50.065Z,41.60
2018-05-07T09:10:17.626Z,41.80
2018-05-07T09:12:45.080Z,41.00
2018-05-07T09:15:12.537Z,40.70
2018-05-07T09:17:39.997Z,40.60
2018-05-07T09:20:07.452Z,38.60
2018-05-07T09:22:34.908Z,39.30
2018-05-07T09:25:02.478Z,39.50
2018-05-07T09:27:29.933Z,39.30
2018-05-07T09:29:57.497Z,39.70
2018-05-07T09:32:25.772Z,39.00
2018-05-07T09:34:53.340Z,39.00
2018-05-07T09:37:20.797Z,38.00
2018-05-07T09:39:48.253Z,38.40
2018-05-07T09:42:15.809Z,37.60
2018-05-07T09:44:43.265Z,38.10
2018-05-07T09:47:10.738Z,38.20
2018-05-07T09:49:38.285Z,38.70
2018-05-07T09:52:05.740Z,37.90
2018-05-07T09:54:33.301Z,37.90
2018-05-07T09:57:00.769Z,36.70
2018-05-07T09:59:28.333Z,37.50
2018-05-07T10:01:55.796Z,37.10
2018-05-07T10:04:23.256Z,37.20
2018-05-07T10:06:50.712Z,36.00
2018-05-07T10:09:18.261Z,36.60
2018-05-07T10:11:45.818Z,35.40
2018-05-07T10:14:13.277Z,36.60
2018-05-07T10:16:40.732Z,36.40
2018-05-07T10:19:08.192Z,35.50
2018-05-07T10:21:35.652Z,36.00
2018-05-07T10:24:03.109Z,36.60
2018-05-07T10:26:30.669Z,37.20
2018-05-07T10:28:58.129Z,36.50
2018-05-07T10:31:25.689Z,35.80
2018-05-07T10:33:53.144Z,35.80
2018-05-07T10:36:20.600Z,36.40
2018-05-07T10:38:48.060Z,36.60
2018-05-07T10:41:15.579Z,36.30
2018-05-07T10:43:43.029Z,37.20
2018-05-07T10:46:10.532Z,36.60
2018-05-07T10:48:38.092Z,36.40
2018-05-07T10:51:05.548Z,35.80
2018-05-07T10:53:33.117Z,36.70
2018-05-07T10:56:00.573Z,36.40
2018-05-07T10:58:28.133Z,36.50
2018-05-07T11:00:55.584Z,36.70
2018-05-07T11:03:23.043Z,36.50
2018-05-07T11:05:50.497Z,36.80
2018-05-07T11:08:17.961Z,36.90
2018-05-07T11:10:45.520Z,37.40
2018-05-07T11:13:13.081Z,36.20
2018-05-07T11:15:40.536Z,36.30
2018-05-07T11:18:08.009Z,36.20
2018-05-07T11:20:35.473Z,36.20
2018-05-07T11:23:02.933Z,36.10
2018-05-07T11:25:30.472Z,36.00
2018-05-07T11:27:57.937Z,37.30
2018-05-07T11:30:26.214Z,37.10
2018-05-07T11:32:53.668Z,37.10
2018-05-07T11:35:21.135Z,37.20
2018-05-07T11:37:49.405Z,37.90
2018-05-07T11:40:17.680Z,36.90
2018-05-07T11:42:45.241Z,36.90
2018-05-07T11:45:12.806Z,36.30
2018-05-07T11:47:40.367Z,36.00
2018-05-07T11:50:07.928Z,35.30
2018-05-07T11:52:35.384Z,35.30
2018-05-07T11:55:02.850Z,35.00
2018-05-07T11:57:31.112Z,36.40
2018-05-07T11:59:58.689Z,36.40
2018-05-07T12:02:26.203Z,35.90
2018-05-07T12:04:53.598Z,35.10
2018-05-07T12:07:21.157Z,34.20
2018-05-07T12:09:49.434Z,34.60
2018-05-07T12:12:16.998Z,34.70
2018-05-07T12:14:44.554Z,34.80
2018-05-07T12:17:12.014Z,34.50
2018-05-07T12:19:39.569Z,33.40
2018-05-07T12:22:07.192Z,33.90
2018-05-07T12:24:34.642Z,33.10
2018-05-07T12:27:02.211Z,33.50
2018-05-07T12:29:29.659Z,32.90
2018-05-07T12:31:57.281Z,33.60
2018-05-07T12:34:24.729Z,32.40
2018-05-07T12:36:52.185Z,33.50
2018-05-07T12:39:19.748Z,33.20
2018-05-07T12:41:47.304Z,33.30
2018-05-07T12:44:14.765Z,33.80
2018-05-07T12:46:42.345Z,33.40
2018-05-07T12:49:09.885Z,32.70
2018-05-07T12:51:37.440Z,32.50
2018-05-07T12:54:04.912Z,33.10
2018-05-07T12:56:32.460Z,32.70
2018-05-07T12:58:59.972Z,33.50
2018-05-07T13:01:27.381Z,33.10
2018-05-07T13:03:54.941Z,32.60
2018-05-07T13:06:22.401Z,32.60
2018-05-07T13:08:50.628Z,33.00
2018-05-07T13:11:18.085Z,33.00
2018-05-07T13:13:45.589Z,33.90
2018-05-07T13:16:13.050Z,32.10
2018-05-07T13:18:40.508Z,32.90
2018-05-07T13:21:08.065Z,33.00
2018-05-07T13:23:35.524Z,33.10
2018-05-07T13:26:02.989Z,31.50
2018-05-07T13:28:30.546Z,31.80
2018-05-07T13:30:58.004Z,32.60
2018-05-07T13:33:25.469Z,33.20
2018-05-07T13:35:52.924Z,33.20
2018-05-07T13:38:20.381Z,31.60
2018-05-07T13:40:47.836Z,31.00
2018-05-07T13:43:15.299Z,30.80
2018-05-07T13:45:43.580Z,30.40
2018-05-07T13:48:11.045Z,30.50
2018-05-07T13:50:38.585Z,31.80
2018-05-07T13:53:06.148Z,31.80
2018-05-07T13:55:33.705Z,31.30
2018-05-07T13:58:01.266Z,31.80
2018-05-07T14:00:28.745Z,31.70
2018-05-07T14:02:56.292Z,31.20
2018-05-07T14:05:24.513Z,31.20
2018-05-07T14:07:51.974Z,31.20
2018-05-07T14:10:19.476Z,31.40
2018-05-07T14:12:46.937Z,31.50
2018-05-07T14:15:14.393Z,32.00
2018-05-07T14:17:41.852Z,31.20
2018-05-07T14:20:09.314Z,30.60
2018-05-07T14:22:36.869Z,31.90
2018-05-07T14:25:04.325Z,31.20
2018-05-07T14:27:31.893Z,31.20
2018-05-07T14:29:59.349Z,33.00
2018-05-07T14:32:26.808Z,31.60
2018-05-07T14:34:55.144Z,32.20
2018-05-07T14:37:22.704Z,32.30
2018-05-07T14:39:50.204Z,31.60
2018-05-07T14:42:17.673Z,32.40
2018-05-07T14:44:45.128Z,32.00
2018-05-07T14:47:12.681Z,32.00
2018-05-07T14:49:40.242Z,32.30
2018-05-07T14:52:07.697Z,32.50
2018-05-07T14:54:35.261Z,32.90
2018-05-07T14:57:02.821Z,32.50
2018-05-07T14:59:30.379Z,32.50
2018-05-07T15:01:57.936Z,32.50
2018-05-07T15:04:25.397Z,33.90
2018-05-07T15:06:52.916Z,33.60
2018-05-07T15:09:20.369Z,33.10
2018-05-07T15:11:47.878Z,33.10
2018-05-07T15:14:22.125Z,33.10
2018-05-07T15:16:50.355Z,33.00
2018-05-07T15:19:17.813Z,32.90
2018-05-07T15:21:45.284Z,33.60
2018-05-07T15:24:12.844Z,33.30
2018-05-07T15:26:40.405Z,33.20
2018-05-07T15:31:40.620Z,33.50
2018-05-07T15:34:08.093Z,33.10
2018-05-07T15:36:35.560Z,33.20
2018-05-07T15:39:03.037Z,33.00
2018-05-07T15:41:31.257Z,32.70
2018-05-07T15:43:58.833Z,32.70
2018-05-07T15:46:26.317Z,32.80
2018-05-07T15:48:53.936Z,33.00
2018-05-07T15:51:21.393Z,33.40
2018-05-07T15:53:48.942Z,33.00
2018-05-07T15:56:16.364Z,33.90
2018-05-07T15:58:43.917Z,33.80
2018-05-07T16:01:11.381Z,34.10
2018-05-07T16:03:38.925Z,33.50
2018-05-07T16:06:06.390Z,33.60
2018-05-07T16:08:33.945Z,33.80
2018-05-07T16:11:01.504Z,34.30
2018-05-07T16:13:29.068Z,34.80
2018-05-07T16:15:56.654Z,34.40
2018-05-07T16:18:24.293Z,33.90
2018-05-07T16:20:51.719Z,34.00
2018-05-07T16:23:19.272Z,34.10
2018-05-07T16:25:46.698Z,33.70
2018-05-07T16:28:14.245Z,33.10
2018-05-07T16:30:42.496Z,33.50
2018-05-07T16:33:10.110Z,33.60
2018-05-07T16:35:37.613Z,33.80
2018-05-07T16:38:04.998Z,33.60
2018-05-07T16:40:32.536Z,33.70
2018-05-07T16:43:00.771Z,34.80
2018-05-07T16:45:28.278Z,34.40
2018-05-07T16:47:55.733Z,35.20
2018-05-07T16:50:23.188Z,35.30
2018-05-07T16:52:50.749Z,35.60
2018-05-07T16:55:18.321Z,35.70
2018-05-07T16:57:45.873Z,35.40
2018-05-07T17:00:13.429Z,35.80
2018-05-07T17:02:40.889Z,35.70
2018-05-07T17:05:09.165Z,35.60
2018-05-07T17:07:36.625Z,36.10
2018-05-07T17:10:04.092Z,36.10
2018-05-07T17:12:31.541Z,36.50
2018-05-07T17:14:59.816Z,37.00
2018-05-07T17:17:27.280Z,36.90
2018-05-07T17:19:54.736Z,37.00
2018-05-07T17:22:22.192Z,37.70
2018-05-07T17:24:49.757Z,37.80
2018-05-07T17:27:17.309Z,38.10
2018-05-07T17:29:44.869Z,38.00
2018-05-07T17:32:12.443Z,38.20
2018-05-07T17:34:39.892Z,38.00
2018-05-07T17:37:07.354Z,37.90
2018-05-07T17:39:34.813Z,38.40
2018-05-07T17:42:02.301Z,38.80
2018-05-07T17:44:42.425Z,38.50
2018-05-07T17:47:21.966Z,38.50
2018-05-07T17:49:49.423Z,39.00
2018-05-07T17:52:16.883Z,39.30
2018-05-07T17:54:44.347Z,39.30
2018-05-07T17:57:11.927Z,39.60
2018-05-07T17:59:40.173Z,40.10
2018-05-07T18:02:07.734Z,40.10
2018-05-07T18:04:35.195Z,40.10
2018-05-07T18:07:02.757Z,40.10
2018-05-07T18:09:30.308Z,40.30
2018-05-07T18:11:57.869Z,40.30
2018-05-07T18:14:25.440Z,40.90
2018-05-07T18:16:52.905Z,40.90
2018-05-07T18:19:20.450Z,41.10
2018-05-07T18:21:48.609Z,41.20
2018-05-07T18:24:16.085Z,41.20
2018-05-07T18:26:43.641Z,41.60
2018-05-07T18:29:11.209Z,41.60
2018-05-07T18:31:38.769Z,41.80
2018-05-07T18:34:06.324Z,41.80
2018-05-07T18:36:33.789Z,41.70
2018-05-07T18:39:01.253Z,41.80
2018-05-07T18:41:28.713Z,41.80
2018-05-07T18:43:56.182Z,42.10
2018-05-07T18:46:24.499Z,42.90
2018-05-07T18:48:51.949Z,42.50
2018-05-07T18:51:19.456Z,42.70
2018-05-07T18:53:46.946Z,42.90
2018-05-07T18:56:15.250Z,43.40
2018-05-07T18:58:42.771Z,43.40
2018-05-07T19:01:10.305Z,43.70
2018-05-07T19:03:37.768Z,44.00
2018-05-07T19:06:05.328Z,44.10
2018-05-07T19:08:32.886Z,44.50
2018-05-07T19:11:00.340Z,44.70
2018-05-07T19:13:27.918Z,44.90
2018-05-07T19:15:55.381Z,45.00
2018-05-07T19:18:22.845Z,45.30
2018-05-07T19:20:51.069Z,45.70
2018-05-07T19:23:18.547Z,45.70
2018-05-07T19:25:46.000Z,45.90
2018-05-07T19:28:13.473Z,46.10
2018-05-07T19:30:40.940Z,46.30
2018-05-07T19:33:09.211Z,46.90
2018-05-07T19:35:36.669Z,46.90
2018-05-07T19:38:04.135Z,47.20
2018-05-07T19:40:31.680Z,47.40
2018-05-07T19:42:59.137Z,47.60
2018-05-07T19:45:26.605Z,47.90
2018-05-07T19:47:54.099Z,48.30
2018-05-07T19:50:21.534Z,48.70
2018-05-07T19:52:49.076Z,49.00
2018-05-07T19:55:17.356Z,49.20
2018-05-07T19:57:45.629Z,49.20
2018-05-07T20:00:13.080Z,49.20
2018-05-07T20:02:40.648Z,49.30
2018-05-07T20:05:08.219Z,49.50
2018-05-07T20:07:35.680Z,49.60
2018-05-07T20:10:03.137Z,49.60
2018-05-07T20:12:30.662Z,49.80
2018-05-07T20:14:58.856Z,50.30
2018-05-07T20:17:26.420Z,50.30
2018-05-07T20:19:53.998Z,50.50
2018-05-07T20:22:21.545Z,50.60
2018-05-07T20:24:49.105Z,50.80
2018-05-07T20:27:16.633Z,51.40
2018-05-07T20:29:44.101Z,51.60
2018-05-07T20:32:11.568Z,52.40
2018-05-07T20:34:39.040Z,52.40
2018-05-07T20:37:06.600Z,52.70
2018-05-07T20:39:34.061Z,53.10
2018-05-07T20:42:01.522Z,52.90
2018-05-07T20:44:29.077Z,52.80
2018-05-07T20:46:56.637Z,53.10
2018-05-07T20:49:24.127Z,53.40
2018-05-07T20:51:52.370Z,53.60
2018-05-07T20:54:19.926Z,53.60
2018-05-07T20:56:47.388Z,53.60
2018-05-07T20:59:14.863Z,53.60
2018-05-07T21:01:42.326Z,53.70
2018-05-07T21:04:10.582Z,54.10
2018-05-07T21:06:38.141Z,54.00
2018-05-07T21:09:05.698Z,54.10
2018-05-07T21:11:33.224Z,54.20
2018-05-07T21:14:00.726Z,54.20
2018-05-07T21:16:28.345Z,54.40
2018-05-07T21:18:55.841Z,54.50
2018-05-07T21:21:23.410Z,54.50
2018-05-07T21:23:50.869Z,54.50
2018-05-07T21:26:18.329Z,54.70
2018-05-07T21:28:46.554Z,54.60
2018-05-07T21:31:14.018Z,54.60
2018-05-07T21:33:41.472Z,54.80
2018-05-07T21:36:08.937Z,54.60
2018-05-07T21:38:36.412Z,54.80
2018-05-07T21:41:03.878Z,54.80
2018-05-07T21:43:31.364Z,55.00
2018-05-07T21:45:58.801Z,55.00
2018-05-07T21:48:26.265Z,55.00
2018-05-07T21:50:53.732Z,55.30
2018-05-07T21:53:21.280Z,55.60
2018-05-07T21:55:48.840Z,55.60
2018-05-07T21:58:16.292Z,55.90
2018-05-07T22:00:43.752Z,56.10
2018-05-07T22:03:11.238Z,56.40
2018-05-07T22:05:39.492Z,56.90
2018-05-07T22:08:07.848Z,57.60
2018-05-07T22:10:36.040Z,58.10
2018-05-07T22:13:04.321Z,58.70
2018-05-07T22:15:31.893Z,58.70
2018-05-07T22:17:59.340Z,58.90
2018-05-07T22:20:26.816Z,58.20
2018-05-07T22:22:54.272Z,57.80
2018-05-07T22:25:21.724Z,57.40
2018-05-07T22:27:49.185Z,57.80
2018-05-07T22:30:16.644Z,57.30
2018-05-07T22:32:44.190Z,57.20
2018-05-07T22:35:11.751Z,57.20
2018-05-07T22:37:39.304Z,57.30
2018-05-07T22:40:06.769Z,57.20
2018-05-07T22:42:34.326Z,57.40
2018-05-07T22:45:01.846Z,57.30
2018-05-07T22:47:29.293Z,57.20
2018-05-07T22:49:56.748Z,57.10
2018-05-07T22:52:24.278Z,57.20
2018-05-07T22:54:51.673Z,57.20
2018-05-07T22:57:19.178Z,57.40
2018-05-07T22:59:46.797Z,57.40
2018-05-07T23:02:14.245Z,57.30
2018-05-07T23:04:41.756Z,57.30
2018-05-07T23:07:09.212Z,57.40
2018-05-07T23:09:36.773Z,57.40
2018-05-07T23:12:04.229Z,57.10
2018-05-07T23:14:31.800Z,57.10
2018-05-07T23:16:59.267Z,57.00
2018-05-07T23:19:26.721Z,57.00
2018-05-07T23:21:54.272Z,56.50
2018-05-07T23:24:21.737Z,56.70
2018-05-07T23:26:49.196Z,56.20
2018-05-07T23:29:16.653Z,56.20
2018-05-07T23:31:44.261Z,56.10
2018-05-07T23:34:11.708Z,55.80
2018-05-07T23:36:39.170Z,56.00
2018-05-07T23:39:06.673Z,55.90
2018-05-07T23:41:34.232Z,56.00
2018-05-07T23:44:01.794Z,56.40
2018-05-07T23:46:30.077Z,57.00
2018-05-07T23:48:57.528Z,57.50
2018-05-07T23:51:24.994Z,57.00
2018-05-07T23:53:52.452Z,57.40
2018-05-07T23:56:19.909Z,57.30
2018-05-07T23:58:47.464Z,57.60
